sensor_id;sensor_type;location;lat;lon;timestamp;P1;durP1;ratioP1;P2;durP2;ratioP2
8317;SDS011;4196;48.926;8.964;2023-05-29T00:00:15;6.40;;;3.67;;
8317;SDS011;4196;48.926;8.964;2023-05-29T00:03:06;6.47;;;3.57;;
8317;SDS011;4196;48.926;8.964;2023-05-29T00:05:53;7.97;;;4.27;;
8317;SDS011;4196;48.926;8.964;2023-05-29T00:08:40;10.30;;;4.97;;
8317;SDS011;4196;48.926;8.964;2023-05-29T00:11:27;10.70;;;4.13;;
8317;SDS011;4196;48.926;8.964;2023-05-29T00:14:13;6.23;;;4.20;;
8317;SDS011;4196;48.926;8.964;2023-05-29T00:17:01;10.13;;;4.17;;
8317;SDS011;4196;48.926;8.964;2023-05-29T00:19:49;7.93;;;4.80;;
8317;SDS011;4196;48.926;8.964;2023-05-29T00:22:35;7.57;;;3.83;;
8317;SDS011;4196;48.926;8.964;2023-05-29T00:25:26;8.70;;;4.40;;
8317;SDS011;4196;48.926;8.964;2023-05-29T00:28:12;7.10;;;3.87;;
8317;SDS011;4196;48.926;8.964;2023-05-29T00:30:59;5.57;;;4.10;;
8317;SDS011;4196;48.926;8.964;2023-05-29T00:33:46;6.93;;;4.00;;
8317;SDS011;4196;48.926;8.964;2023-05-29T00:36:33;6.67;;;3.80;;
8317;SDS011;4196;48.926;8.964;2023-05-29T00:39:19;7.83;;;4.03;;
8317;SDS011;4196;48.926;8.964;2023-05-29T00:42:06;6.20;;;3.80;;
8317;SDS011;4196;48.926;8.964;2023-05-29T00:44:53;6.63;;;3.60;;
8317;SDS011;4196;48.926;8.964;2023-05-29T00:47:40;6.20;;;3.83;;
8317;SDS011;4196;48.926;8.964;2023-05-29T00:50:27;8.97;;;4.30;;
8317;SDS011;4196;48.926;8.964;2023-05-29T00:53:14;5.97;;;3.87;;
8317;SDS011;4196;48.926;8.964;2023-05-29T00:56:01;6.27;;;4.10;;
8317;SDS011;4196;48.926;8.964;2023-05-29T00:58:49;9.37;;;4.20;;
8317;SDS011;4196;48.926;8.964;2023-05-29T01:01:37;7.80;;;3.77;;
8317;SDS011;4196;48.926;8.964;2023-05-29T01:04:25;8.23;;;5.10;;
8317;SDS011;4196;48.926;8.964;2023-05-29T01:07:13;6.87;;;3.77;;
8317;SDS011;4196;48.926;8.964;2023-05-29T01:10:00;7.40;;;3.87;;
8317;SDS011;4196;48.926;8.964;2023-05-29T01:12:56;8.63;;;4.77;;
8317;SDS011;4196;48.926;8.964;2023-05-29T01:15:52;8.30;;;3.50;;
8317;SDS011;4196;48.926;8.964;2023-05-29T01:18:54;8.93;;;4.10;;
8317;SDS011;4196;48.926;8.964;2023-05-29T01:24:44;6.07;;;3.47;;
8317;SDS011;4196;48.926;8.964;2023-05-29T01:27:33;8.63;;;4.37;;
8317;SDS011;4196;48.926;8.964;2023-05-29T01:30:21;10.07;;;4.33;;
8317;SDS011;4196;48.926;8.964;2023-05-29T01:33:10;7.47;;;4.30;;
8317;SDS011;4196;48.926;8.964;2023-05-29T01:35:57;9.40;;;4.10;;
8317;SDS011;4196;48.926;8.964;2023-05-29T01:38:43;6.17;;;4.40;;
8317;SDS011;4196;48.926;8.964;2023-05-29T01:41:30;3.93;;;3.53;;
8317;SDS011;4196;48.926;8.964;2023-05-29T01:44:17;6.77;;;3.73;;
8317;SDS011;4196;48.926;8.964;2023-05-29T01:47:06;10.77;;;4.47;;
8317;SDS011;4196;48.926;8.964;2023-05-29T01:49:53;5.87;;;4.30;;
8317;SDS011;4196;48.926;8.964;2023-05-29T01:52:40;8.03;;;4.77;;
8317;SDS011;4196;48.926;8.964;2023-05-29T01:55:27;7.33;;;4.37;;
8317;SDS011;4196;48.926;8.964;2023-05-29T01:58:14;5.27;;;3.53;;
8317;SDS011;4196;48.926;8.964;2023-05-29T02:01:03;6.60;;;3.87;;
8317;SDS011;4196;48.926;8.964;2023-05-29T02:03:50;7.87;;;3.80;;
8317;SDS011;4196;48.926;8.964;2023-05-29T02:06:39;8.13;;;3.73;;
8317;SDS011;4196;48.926;8.964;2023-05-29T02:09:26;6.77;;;4.17;;
8317;SDS011;4196;48.926;8.964;2023-05-29T02:12:12;11.60;;;4.00;;
8317;SDS011;4196;48.926;8.964;2023-05-29T02:14:59;6.37;;;4.00;;
8317;SDS011;4196;48.926;8.964;2023-05-29T02:17:47;7.63;;;4.47;;
8317;SDS011;4196;48.926;8.964;2023-05-29T02:20:34;10.23;;;4.60;;
8317;SDS011;4196;48.926;8.964;2023-05-29T02:23:21;7.10;;;3.90;;
8317;SDS011;4196;48.926;8.964;2023-05-29T02:26:09;7.00;;;3.80;;
8317;SDS011;4196;48.926;8.964;2023-05-29T02:28:56;7.43;;;3.70;;
8317;SDS011;4196;48.926;8.964;2023-05-29T02:31:43;8.53;;;3.67;;
8317;SDS011;4196;48.926;8.964;2023-05-29T02:34:30;9.33;;;4.10;;
8317;SDS011;4196;48.926;8.964;2023-05-29T02:37:16;10.53;;;4.40;;
8317;SDS011;4196;48.926;8.964;2023-05-29T02:40:03;8.97;;;4.80;;
8317;SDS011;4196;48.926;8.964;2023-05-29T02:42:49;5.90;;;4.27;;
8317;SDS011;4196;48.926;8.964;2023-05-29T02:45:36;8.40;;;4.23;;
8317;SDS011;4196;48.926;8.964;2023-05-29T02:48:22;6.57;;;4.00;;
8317;SDS011;4196;48.926;8.964;2023-05-29T02:51:09;5.63;;;4.03;;
8317;SDS011;4196;48.926;8.964;2023-05-29T02:53:55;5.90;;;3.83;;
8317;SDS011;4196;48.926;8.964;2023-05-29T02:56:42;7.40;;;4.33;;
8317;SDS011;4196;48.926;8.964;2023-05-29T02:59:29;8.93;;;5.13;;
8317;SDS011;4196;48.926;8.964;2023-05-29T03:02:17;7.50;;;4.07;;
8317;SDS011;4196;48.926;8.964;2023-05-29T03:05:04;7.33;;;3.77;;
8317;SDS011;4196;48.926;8.964;2023-05-29T03:07:51;5.87;;;3.73;;
8317;SDS011;4196;48.926;8.964;2023-05-29T03:10:37;7.00;;;3.60;;
8317;SDS011;4196;48.926;8.964;2023-05-29T03:13:24;5.33;;;4.07;;
8317;SDS011;4196;48.926;8.964;2023-05-29T03:16:19;5.50;;;3.30;;
8317;SDS011;4196;48.926;8.964;2023-05-29T03:19:06;8.23;;;3.63;;
8317;SDS011;4196;48.926;8.964;2023-05-29T03:21:53;5.03;;;3.37;;
8317;SDS011;4196;48.926;8.964;2023-05-29T03:24:40;7.73;;;3.50;;
8317;SDS011;4196;48.926;8.964;2023-05-29T03:27:27;5.97;;;3.57;;
8317;SDS011;4196;48.926;8.964;2023-05-29T03:30:23;4.87;;;3.60;;
8317;SDS011;4196;48.926;8.964;2023-05-29T03:33:12;7.57;;;3.80;;
8317;SDS011;4196;48.926;8.964;2023-05-29T03:36:19;7.17;;;4.00;;
8317;SDS011;4196;48.926;8.964;2023-05-29T03:39:06;6.30;;;4.23;;
8317;SDS011;4196;48.926;8.964;2023-05-29T03:41:53;6.60;;;3.73;;
8317;SDS011;4196;48.926;8.964;2023-05-29T03:44:39;9.80;;;4.17;;
8317;SDS011;4196;48.926;8.964;2023-05-29T03:47:28;6.13;;;3.83;;
8317;SDS011;4196;48.926;8.964;2023-05-29T03:50:14;9.40;;;5.23;;
8317;SDS011;4196;48.926;8.964;2023-05-29T03:53:03;9.17;;;4.10;;
8317;SDS011;4196;48.926;8.964;2023-05-29T03:55:50;6.63;;;4.23;;
8317;SDS011;4196;48.926;8.964;2023-05-29T03:58:37;9.30;;;4.50;;
8317;SDS011;4196;48.926;8.964;2023-05-29T04:01:23;5.63;;;3.70;;
8317;SDS011;4196;48.926;8.964;2023-05-29T04:04:12;9.33;;;3.80;;
8317;SDS011;4196;48.926;8.964;2023-05-29T04:06:59;7.80;;;4.07;;
8317;SDS011;4196;48.926;8.964;2023-05-29T04:09:46;7.53;;;4.23;;
8317;SDS011;4196;48.926;8.964;2023-05-29T04:12:32;5.97;;;3.53;;
8317;SDS011;4196;48.926;8.964;2023-05-29T04:15:18;5.37;;;3.90;;
8317;SDS011;4196;48.926;8.964;2023-05-29T04:18:06;6.40;;;4.10;;
8317;SDS011;4196;48.926;8.964;2023-05-29T04:20:52;6.23;;;3.93;;
8317;SDS011;4196;48.926;8.964;2023-05-29T04:23:40;9.50;;;4.30;;
8317;SDS011;4196;48.926;8.964;2023-05-29T04:26:26;6.60;;;3.60;;
8317;SDS011;4196;48.926;8.964;2023-05-29T04:29:13;8.43;;;3.80;;
8317;SDS011;4196;48.926;8.964;2023-05-29T04:32:00;7.57;;;4.20;;
8317;SDS011;4196;48.926;8.964;2023-05-29T04:34:50;7.47;;;3.97;;
8317;SDS011;4196;48.926;8.964;2023-05-29T04:37:37;6.60;;;3.70;;
8317;SDS011;4196;48.926;8.964;2023-05-29T04:40:26;5.63;;;3.37;;
8317;SDS011;4196;48.926;8.964;2023-05-29T04:43:13;7.37;;;4.13;;
8317;SDS011;4196;48.926;8.964;2023-05-29T04:46:14;6.73;;;3.43;;
8317;SDS011;4196;48.926;8.964;2023-05-29T04:49:02;7.50;;;4.33;;
8317;SDS011;4196;48.926;8.964;2023-05-29T04:51:48;8.13;;;3.77;;
8317;SDS011;4196;48.926;8.964;2023-05-29T04:54:38;5.67;;;3.30;;
8317;SDS011;4196;48.926;8.964;2023-05-29T04:57:25;5.30;;;3.87;;
8317;SDS011;4196;48.926;8.964;2023-05-29T05:00:12;4.30;;;3.13;;
8317;SDS011;4196;48.926;8.964;2023-05-29T05:03:02;6.23;;;3.80;;
8317;SDS011;4196;48.926;8.964;2023-05-29T05:05:49;5.70;;;3.50;;
8317;SDS011;4196;48.926;8.964;2023-05-29T05:08:36;4.60;;;3.47;;
8317;SDS011;4196;48.926;8.964;2023-05-29T05:11:23;4.87;;;3.70;;
8317;SDS011;4196;48.926;8.964;2023-05-29T05:14:10;8.83;;;3.90;;
8317;SDS011;4196;48.926;8.964;2023-05-29T05:16:56;7.73;;;4.07;;
8317;SDS011;4196;48.926;8.964;2023-05-29T05:19:44;6.07;;;4.00;;
8317;SDS011;4196;48.926;8.964;2023-05-29T05:22:31;6.17;;;3.80;;
8317;SDS011;4196;48.926;8.964;2023-05-29T05:25:17;4.73;;;4.00;;
8317;SDS011;4196;48.926;8.964;2023-05-29T05:28:04;6.30;;;4.13;;
8317;SDS011;4196;48.926;8.964;2023-05-29T05:30:53;8.60;;;4.27;;
8317;SDS011;4196;48.926;8.964;2023-05-29T05:33:40;6.17;;;3.70;;
8317;SDS011;4196;48.926;8.964;2023-05-29T05:36:26;5.13;;;3.90;;
8317;SDS011;4196;48.926;8.964;2023-05-29T05:39:21;5.43;;;4.13;;
8317;SDS011;4196;48.926;8.964;2023-05-29T05:42:08;5.37;;;4.43;;
8317;SDS011;4196;48.926;8.964;2023-05-29T05:45:08;5.87;;;4.30;;
8317;SDS011;4196;48.926;8.964;2023-05-29T05:47:56;7.63;;;4.20;;
8317;SDS011;4196;48.926;8.964;2023-05-29T05:50:43;6.07;;;3.97;;
8317;SDS011;4196;48.926;8.964;2023-05-29T05:53:29;6.60;;;4.20;;
8317;SDS011;4196;48.926;8.964;2023-05-29T05:56:16;6.77;;;4.53;;
8317;SDS011;4196;48.926;8.964;2023-05-29T05:59:03;6.87;;;4.07;;
8317;SDS011;4196;48.926;8.964;2023-05-29T06:01:50;7.80;;;4.50;;
8317;SDS011;4196;48.926;8.964;2023-05-29T06:04:36;5.33;;;3.70;;
8317;SDS011;4196;48.926;8.964;2023-05-29T06:07:22;7.60;;;4.37;;
8317;SDS011;4196;48.926;8.964;2023-05-29T06:10:09;14.23;;;4.47;;
8317;SDS011;4196;48.926;8.964;2023-05-29T06:12:56;10.30;;;4.43;;
8317;SDS011;4196;48.926;8.964;2023-05-29T06:15:48;5.93;;;4.13;;
8317;SDS011;4196;48.926;8.964;2023-05-29T06:18:35;4.40;;;3.37;;
8317;SDS011;4196;48.926;8.964;2023-05-29T06:21:22;7.27;;;4.00;;
8317;SDS011;4196;48.926;8.964;2023-05-29T06:24:14;6.00;;;4.33;;
8317;SDS011;4196;48.926;8.964;2023-05-29T06:27:00;7.47;;;3.83;;
8317;SDS011;4196;48.926;8.964;2023-05-29T06:29:47;10.23;;;4.13;;
8317;SDS011;4196;48.926;8.964;2023-05-29T06:32:34;5.67;;;3.50;;
8317;SDS011;4196;48.926;8.964;2023-05-29T06:35:20;5.90;;;3.80;;
8317;SDS011;4196;48.926;8.964;2023-05-29T06:38:07;7.27;;;3.60;;
8317;SDS011;4196;48.926;8.964;2023-05-29T06:40:53;5.93;;;3.47;;
8317;SDS011;4196;48.926;8.964;2023-05-29T06:43:40;4.80;;;3.13;;
8317;SDS011;4196;48.926;8.964;2023-05-29T06:46:29;5.20;;;3.63;;
8317;SDS011;4196;48.926;8.964;2023-05-29T06:52:05;6.43;;;3.47;;
8317;SDS011;4196;48.926;8.964;2023-05-29T06:55:17;5.23;;;3.53;;
8317;SDS011;4196;48.926;8.964;2023-05-29T06:58:05;4.43;;;3.17;;
8317;SDS011;4196;48.926;8.964;2023-05-29T07:07:03;4.87;;;3.00;;
8317;SDS011;4196;48.926;8.964;2023-05-29T07:09:50;5.83;;;3.60;;
8317;SDS011;4196;48.926;8.964;2023-05-29T07:12:41;5.10;;;3.27;;
8317;SDS011;4196;48.926;8.964;2023-05-29T07:15:28;4.60;;;2.93;;
8317;SDS011;4196;48.926;8.964;2023-05-29T07:18:15;4.20;;;3.47;;
8317;SDS011;4196;48.926;8.964;2023-05-29T07:21:02;5.90;;;2.80;;
8317;SDS011;4196;48.926;8.964;2023-05-29T07:23:49;3.43;;;2.63;;
8317;SDS011;4196;48.926;8.964;2023-05-29T07:26:37;5.37;;;2.70;;
8317;SDS011;4196;48.926;8.964;2023-05-29T07:29:24;3.77;;;2.77;;
8317;SDS011;4196;48.926;8.964;2023-05-29T07:32:11;5.73;;;2.60;;
8317;SDS011;4196;48.926;8.964;2023-05-29T07:34:58;4.63;;;2.80;;
8317;SDS011;4196;48.926;8.964;2023-05-29T07:37:45;4.83;;;2.70;;
8317;SDS011;4196;48.926;8.964;2023-05-29T07:40:34;3.97;;;3.03;;
8317;SDS011;4196;48.926;8.964;2023-05-29T07:43:30;5.23;;;3.03;;
8317;SDS011;4196;48.926;8.964;2023-05-29T07:46:19;6.07;;;2.90;;
8317;SDS011;4196;48.926;8.964;2023-05-29T07:49:10;6.30;;;2.83;;
8317;SDS011;4196;48.926;8.964;2023-05-29T07:51:56;7.10;;;2.90;;
8317;SDS011;4196;48.926;8.964;2023-05-29T07:54:45;5.90;;;3.17;;
8317;SDS011;4196;48.926;8.964;2023-05-29T07:57:33;6.33;;;2.97;;
8317;SDS011;4196;48.926;8.964;2023-05-29T08:00:20;4.63;;;2.87;;
8317;SDS011;4196;48.926;8.964;2023-05-29T08:03:06;4.73;;;2.83;;
8317;SDS011;4196;48.926;8.964;2023-05-29T08:06:16;5.67;;;2.70;;
8317;SDS011;4196;48.926;8.964;2023-05-29T08:09:04;5.17;;;3.00;;
8317;SDS011;4196;48.926;8.964;2023-05-29T08:11:51;4.97;;;2.87;;
8317;SDS011;4196;48.926;8.964;2023-05-29T08:14:37;5.23;;;3.20;;
8317;SDS011;4196;48.926;8.964;2023-05-29T08:17:24;5.27;;;2.90;;
8317;SDS011;4196;48.926;8.964;2023-05-29T08:20:11;5.03;;;2.70;;
8317;SDS011;4196;48.926;8.964;2023-05-29T08:22:58;5.87;;;2.80;;
8317;SDS011;4196;48.926;8.964;2023-05-29T08:25:44;7.50;;;2.87;;
8317;SDS011;4196;48.926;8.964;2023-05-29T08:28:31;6.17;;;3.47;;
8317;SDS011;4196;48.926;8.964;2023-05-29T08:31:17;7.87;;;3.07;;
8317;SDS011;4196;48.926;8.964;2023-05-29T08:34:04;6.00;;;3.20;;
8317;SDS011;4196;48.926;8.964;2023-05-29T08:36:52;4.37;;;2.70;;
8317;SDS011;4196;48.926;8.964;2023-05-29T08:39:41;4.97;;;3.20;;
8317;SDS011;4196;48.926;8.964;2023-05-29T08:42:32;3.77;;;2.90;;
8317;SDS011;4196;48.926;8.964;2023-05-29T08:45:19;3.93;;;2.83;;
8317;SDS011;4196;48.926;8.964;2023-05-29T08:48:08;5.57;;;3.03;;
8317;SDS011;4196;48.926;8.964;2023-05-29T08:50:57;4.33;;;2.83;;
8317;SDS011;4196;48.926;8.964;2023-05-29T08:53:45;4.73;;;3.30;;
8317;SDS011;4196;48.926;8.964;2023-05-29T08:56:32;6.87;;;3.50;;
8317;SDS011;4196;48.926;8.964;2023-05-29T08:59:20;3.30;;;2.77;;
8317;SDS011;4196;48.926;8.964;2023-05-29T09:02:09;6.47;;;3.23;;
8317;SDS011;4196;48.926;8.964;2023-05-29T09:04:57;4.03;;;3.20;;
8317;SDS011;4196;48.926;8.964;2023-05-29T09:07:44;6.20;;;3.37;;
8317;SDS011;4196;48.926;8.964;2023-05-29T09:10:30;6.30;;;2.93;;
8317;SDS011;4196;48.926;8.964;2023-05-29T09:13:18;4.47;;;2.80;;
8317;SDS011;4196;48.926;8.964;2023-05-29T09:16:04;5.93;;;2.80;;
8317;SDS011;4196;48.926;8.964;2023-05-29T09:18:52;5.23;;;2.73;;
8317;SDS011;4196;48.926;8.964;2023-05-29T09:21:38;5.10;;;3.20;;
8317;SDS011;4196;48.926;8.964;2023-05-29T09:24:26;3.60;;;2.80;;
8317;SDS011;4196;48.926;8.964;2023-05-29T09:27:14;9.27;;;3.27;;
8317;SDS011;4196;48.926;8.964;2023-05-29T09:30:00;5.30;;;2.83;;
8317;SDS011;4196;48.926;8.964;2023-05-29T09:32:52;7.23;;;3.43;;
8317;SDS011;4196;48.926;8.964;2023-05-29T09:35:40;4.33;;;3.30;;
8317;SDS011;4196;48.926;8.964;2023-05-29T09:38:31;6.47;;;3.30;;
8317;SDS011;4196;48.926;8.964;2023-05-29T09:41:42;5.60;;;3.13;;
8317;SDS011;4196;48.926;8.964;2023-05-29T09:44:30;6.83;;;2.70;;
8317;SDS011;4196;48.926;8.964;2023-05-29T09:47:17;8.47;;;3.10;;
8317;SDS011;4196;48.926;8.964;2023-05-29T09:50:04;4.93;;;2.93;;
8317;SDS011;4196;48.926;8.964;2023-05-29T09:52:52;3.43;;;2.60;;
8317;SDS011;4196;48.926;8.964;2023-05-29T09:55:40;5.13;;;3.30;;
8317;SDS011;4196;48.926;8.964;2023-05-29T09:58:26;5.53;;;3.13;;
8317;SDS011;4196;48.926;8.964;2023-05-29T10:01:13;5.20;;;3.50;;
8317;SDS011;4196;48.926;8.964;2023-05-29T10:04:02;4.80;;;2.97;;
8317;SDS011;4196;48.926;8.964;2023-05-29T10:06:48;4.93;;;3.17;;
8317;SDS011;4196;48.926;8.964;2023-05-29T10:09:41;6.67;;;3.07;;
8317;SDS011;4196;48.926;8.964;2023-05-29T10:12:31;3.83;;;2.93;;
8317;SDS011;4196;48.926;8.964;2023-05-29T10:15:20;5.97;;;3.00;;
8317;SDS011;4196;48.926;8.964;2023-05-29T10:18:20;5.50;;;3.37;;
8317;SDS011;4196;48.926;8.964;2023-05-29T10:21:11;6.77;;;3.10;;
8317;SDS011;4196;48.926;8.964;2023-05-29T10:23:58;5.50;;;3.07;;
8317;SDS011;4196;48.926;8.964;2023-05-29T10:26:47;7.60;;;3.10;;
8317;SDS011;4196;48.926;8.964;2023-05-29T10:29:36;24.93;;;3.73;;
8317;SDS011;4196;48.926;8.964;2023-05-29T10:35:44;5.53;;;3.00;;
8317;SDS011;4196;48.926;8.964;2023-05-29T10:38:34;3.40;;;2.80;;
8317;SDS011;4196;48.926;8.964;2023-05-29T10:47:25;5.13;;;2.80;;
8317;SDS011;4196;48.926;8.964;2023-05-29T10:50:12;3.40;;;2.80;;
8317;SDS011;4196;48.926;8.964;2023-05-29T10:52:58;5.50;;;2.77;;
8317;SDS011;4196;48.926;8.964;2023-05-29T10:55:45;5.57;;;3.00;;
8317;SDS011;4196;48.926;8.964;2023-05-29T10:58:31;6.10;;;2.90;;
8317;SDS011;4196;48.926;8.964;2023-05-29T11:01:20;6.87;;;2.77;;
8317;SDS011;4196;48.926;8.964;2023-05-29T11:07:06;5.20;;;2.70;;
8317;SDS011;4196;48.926;8.964;2023-05-29T11:09:54;4.63;;;2.40;;
8317;SDS011;4196;48.926;8.964;2023-05-29T11:12:56;8.03;;;3.30;;
8317;SDS011;4196;48.926;8.964;2023-05-29T11:15:44;5.20;;;2.43;;
8317;SDS011;4196;48.926;8.964;2023-05-29T11:18:30;5.13;;;2.90;;
8317;SDS011;4196;48.926;8.964;2023-05-29T11:21:31;4.87;;;2.90;;
8317;SDS011;4196;48.926;8.964;2023-05-29T11:27:12;7.07;;;2.90;;
8317;SDS011;4196;48.926;8.964;2023-05-29T11:29:59;3.90;;;2.73;;
8317;SDS011;4196;48.926;8.964;2023-05-29T11:32:46;3.20;;;2.63;;
8317;SDS011;4196;48.926;8.964;2023-05-29T11:35:33;3.13;;;2.67;;
8317;SDS011;4196;48.926;8.964;2023-05-29T11:38:21;4.93;;;2.80;;
8317;SDS011;4196;48.926;8.964;2023-05-29T11:41:08;4.77;;;2.73;;
8317;SDS011;4196;48.926;8.964;2023-05-29T11:43:59;5.50;;;3.13;;
8317;SDS011;4196;48.926;8.964;2023-05-29T11:47:01;4.03;;;2.60;;
8317;SDS011;4196;48.926;8.964;2023-05-29T11:49:49;4.00;;;2.40;;
8317;SDS011;4196;48.926;8.964;2023-05-29T11:52:35;5.53;;;2.83;;
8317;SDS011;4196;48.926;8.964;2023-05-29T11:55:31;4.50;;;2.40;;
8317;SDS011;4196;48.926;8.964;2023-05-29T11:58:18;6.50;;;3.00;;
8317;SDS011;4196;48.926;8.964;2023-05-29T12:01:06;2.67;;;2.37;;
8317;SDS011;4196;48.926;8.964;2023-05-29T12:03:54;3.60;;;2.47;;
8317;SDS011;4196;48.926;8.964;2023-05-29T12:06:40;3.63;;;2.50;;
8317;SDS011;4196;48.926;8.964;2023-05-29T12:09:28;3.38;;;2.40;;
8317;SDS011;4196;48.926;8.964;2023-05-29T12:12:15;3.80;;;2.33;;
8317;SDS011;4196;48.926;8.964;2023-05-29T12:15:03;3.63;;;2.45;;
8317;SDS011;4196;48.926;8.964;2023-05-29T12:17:52;2.80;;;2.45;;
8317;SDS011;4196;48.926;8.964;2023-05-29T12:20:39;3.88;;;2.28;;
8317;SDS011;4196;48.926;8.964;2023-05-29T12:23:27;3.72;;;2.40;;
8317;SDS011;4196;48.926;8.964;2023-05-29T12:26:17;2.53;;;2.33;;
8317;SDS011;4196;48.926;8.964;2023-05-29T12:29:03;3.88;;;2.83;;
8317;SDS011;4196;48.926;8.964;2023-05-29T12:31:57;6.38;;;2.80;;
8317;SDS011;4196;48.926;8.964;2023-05-29T12:34:48;4.18;;;2.42;;
8317;SDS011;4196;48.926;8.964;2023-05-29T12:37:35;4.82;;;2.38;;
8317;SDS011;4196;48.926;8.964;2023-05-29T12:40:26;3.28;;;2.95;;
8317;SDS011;4196;48.926;8.964;2023-05-29T12:43:12;3.15;;;2.47;;
8317;SDS011;4196;48.926;8.964;2023-05-29T12:45:59;4.00;;;2.83;;
8317;SDS011;4196;48.926;8.964;2023-05-29T12:48:46;5.70;;;3.03;;
8317;SDS011;4196;48.926;8.964;2023-05-29T12:51:33;4.95;;;2.70;;
8317;SDS011;4196;48.926;8.964;2023-05-29T12:54:20;3.63;;;2.60;;
8317;SDS011;4196;48.926;8.964;2023-05-29T12:57:06;3.72;;;2.38;;
8317;SDS011;4196;48.926;8.964;2023-05-29T12:59:53;2.67;;;2.35;;
8317;SDS011;4196;48.926;8.964;2023-05-29T13:02:40;5.68;;;2.90;;
8317;SDS011;4196;48.926;8.964;2023-05-29T13:05:26;4.72;;;2.38;;
8317;SDS011;4196;48.926;8.964;2023-05-29T13:08:13;6.65;;;2.80;;
8317;SDS011;4196;48.926;8.964;2023-05-29T13:11:00;3.77;;;2.50;;
8317;SDS011;4196;48.926;8.964;2023-05-29T13:13:46;2.72;;;2.00;;
8317;SDS011;4196;48.926;8.964;2023-05-29T13:16:33;4.38;;;2.50;;
8317;SDS011;4196;48.926;8.964;2023-05-29T13:19:21;6.63;;;2.60;;
8317;SDS011;4196;48.926;8.964;2023-05-29T13:22:07;3.10;;;2.40;;
8317;SDS011;4196;48.926;8.964;2023-05-29T13:24:54;5.55;;;2.50;;
8317;SDS011;4196;48.926;8.964;2023-05-29T13:27:41;3.53;;;2.40;;
8317;SDS011;4196;48.926;8.964;2023-05-29T13:30:29;3.33;;;2.20;;
8317;SDS011;4196;48.926;8.964;2023-05-29T13:33:16;4.47;;;2.30;;
8317;SDS011;4196;48.926;8.964;2023-05-29T13:36:02;3.75;;;2.63;;
8317;SDS011;4196;48.926;8.964;2023-05-29T13:38:49;3.65;;;2.45;;
8317;SDS011;4196;48.926;8.964;2023-05-29T13:41:35;3.92;;;2.20;;
8317;SDS011;4196;48.926;8.964;2023-05-29T13:44:22;2.85;;;2.30;;
8317;SDS011;4196;48.926;8.964;2023-05-29T13:47:09;4.18;;;2.30;;
8317;SDS011;4196;48.926;8.964;2023-05-29T13:49:56;2.72;;;2.35;;
8317;SDS011;4196;48.926;8.964;2023-05-29T13:52:42;2.67;;;2.17;;
8317;SDS011;4196;48.926;8.964;2023-05-29T13:55:29;3.15;;;2.35;;
8317;SDS011;4196;48.926;8.964;2023-05-29T13:58:15;3.75;;;2.22;;
8317;SDS011;4196;48.926;8.964;2023-05-29T14:01:02;2.63;;;2.17;;
8317;SDS011;4196;48.926;8.964;2023-05-29T14:03:49;4.28;;;2.30;;
8317;SDS011;4196;48.926;8.964;2023-05-29T14:06:35;2.97;;;2.28;;
8317;SDS011;4196;48.926;8.964;2023-05-29T14:09:22;3.35;;;2.33;;
8317;SDS011;4196;48.926;8.964;2023-05-29T14:12:13;4.10;;;2.33;;
8317;SDS011;4196;48.926;8.964;2023-05-29T14:15:00;3.35;;;2.65;;
8317;SDS011;4196;48.926;8.964;2023-05-29T14:17:46;4.72;;;2.38;;
8317;SDS011;4196;48.926;8.964;2023-05-29T14:20:32;4.00;;;2.33;;
8317;SDS011;4196;48.926;8.964;2023-05-29T14:23:19;3.45;;;2.15;;
8317;SDS011;4196;48.926;8.964;2023-05-29T14:26:06;2.75;;;2.30;;
8317;SDS011;4196;48.926;8.964;2023-05-29T14:28:53;2.83;;;2.10;;
8317;SDS011;4196;48.926;8.964;2023-05-29T14:31:50;5.13;;;2.40;;
8317;SDS011;4196;48.926;8.964;2023-05-29T14:34:37;5.10;;;2.40;;
8317;SDS011;4196;48.926;8.964;2023-05-29T14:37:24;3.65;;;2.42;;
8317;SDS011;4196;48.926;8.964;2023-05-29T14:40:11;2.88;;;2.22;;
8317;SDS011;4196;48.926;8.964;2023-05-29T14:42:57;2.70;;;2.17;;
8317;SDS011;4196;48.926;8.964;2023-05-29T14:45:44;4.85;;;2.50;;
8317;SDS011;4196;48.926;8.964;2023-05-29T14:48:30;3.50;;;2.10;;
8317;SDS011;4196;48.926;8.964;2023-05-29T14:51:16;2.58;;;2.30;;
8317;SDS011;4196;48.926;8.964;2023-05-29T14:54:05;2.60;;;2.33;;
8317;SDS011;4196;48.926;8.964;2023-05-29T14:56:51;4.05;;;2.50;;
8317;SDS011;4196;48.926;8.964;2023-05-29T14:59:37;4.57;;;2.13;;
8317;SDS011;4196;48.926;8.964;2023-05-29T15:02:24;3.75;;;2.33;;
8317;SDS011;4196;48.926;8.964;2023-05-29T15:05:10;5.78;;;2.70;;
8317;SDS011;4196;48.926;8.964;2023-05-29T15:07:57;2.20;;;2.00;;
8317;SDS011;4196;48.926;8.964;2023-05-29T15:10:43;2.95;;;2.28;;
8317;SDS011;4196;48.926;8.964;2023-05-29T15:13:30;4.60;;;2.13;;
8317;SDS011;4196;48.926;8.964;2023-05-29T15:16:16;4.13;;;2.20;;
8317;SDS011;4196;48.926;8.964;2023-05-29T15:19:03;4.50;;;2.67;;
8317;SDS011;4196;48.926;8.964;2023-05-29T15:21:49;3.15;;;2.05;;
8317;SDS011;4196;48.926;8.964;2023-05-29T15:24:36;4.50;;;2.53;;
8317;SDS011;4196;48.926;8.964;2023-05-29T15:27:23;3.25;;;2.15;;
8317;SDS011;4196;48.926;8.964;2023-05-29T15:30:14;4.15;;;2.53;;
8317;SDS011;4196;48.926;8.964;2023-05-29T15:33:01;3.17;;;2.30;;
8317;SDS011;4196;48.926;8.964;2023-05-29T15:35:54;2.45;;;2.00;;
8317;SDS011;4196;48.926;8.964;2023-05-29T15:38:40;3.10;;;2.28;;
8317;SDS011;4196;48.926;8.964;2023-05-29T15:41:27;3.13;;;2.83;;
8317;SDS011;4196;48.926;8.964;2023-05-29T15:44:14;4.03;;;2.42;;
8317;SDS011;4196;48.926;8.964;2023-05-29T15:47:01;3.95;;;2.15;;
8317;SDS011;4196;48.926;8.964;2023-05-29T15:49:48;3.33;;;2.00;;
8317;SDS011;4196;48.926;8.964;2023-05-29T15:52:35;4.00;;;2.00;;
8317;SDS011;4196;48.926;8.964;2023-05-29T15:55:38;3.20;;;2.17;;
8317;SDS011;4196;48.926;8.964;2023-05-29T15:58:25;2.95;;;2.15;;
8317;SDS011;4196;48.926;8.964;2023-05-29T16:01:12;4.72;;;2.20;;
8317;SDS011;4196;48.926;8.964;2023-05-29T16:03:58;2.65;;;2.22;;
8317;SDS011;4196;48.926;8.964;2023-05-29T16:06:45;2.20;;;2.00;;
8317;SDS011;4196;48.926;8.964;2023-05-29T16:09:32;2.70;;;2.30;;
8317;SDS011;4196;48.926;8.964;2023-05-29T16:12:18;2.70;;;2.22;;
8317;SDS011;4196;48.926;8.964;2023-05-29T16:15:05;3.63;;;2.47;;
8317;SDS011;4196;48.926;8.964;2023-05-29T16:17:52;2.53;;;2.20;;
8317;SDS011;4196;48.926;8.964;2023-05-29T16:20:39;2.40;;;2.08;;
8317;SDS011;4196;48.926;8.964;2023-05-29T16:23:25;3.30;;;2.17;;
8317;SDS011;4196;48.926;8.964;2023-05-29T16:26:12;2.67;;;2.08;;
8317;SDS011;4196;48.926;8.964;2023-05-29T16:29:02;4.28;;;2.60;;
8317;SDS011;4196;48.926;8.964;2023-05-29T16:31:49;3.72;;;2.13;;
8317;SDS011;4196;48.926;8.964;2023-05-29T16:34:36;2.92;;;2.08;;
8317;SDS011;4196;48.926;8.964;2023-05-29T16:37:23;5.72;;;3.05;;
8317;SDS011;4196;48.926;8.964;2023-05-29T16:40:10;3.05;;;2.45;;
8317;SDS011;4196;48.926;8.964;2023-05-29T16:42:56;3.65;;;2.75;;
8317;SDS011;4196;48.926;8.964;2023-05-29T16:45:43;2.85;;;2.03;;
8317;SDS011;4196;48.926;8.964;2023-05-29T16:48:30;3.25;;;2.60;;
8317;SDS011;4196;48.926;8.964;2023-05-29T16:51:16;4.00;;;2.35;;
8317;SDS011;4196;48.926;8.964;2023-05-29T16:54:03;6.03;;;2.58;;
8317;SDS011;4196;48.926;8.964;2023-05-29T16:56:50;2.88;;;2.33;;
8317;SDS011;4196;48.926;8.964;2023-05-29T16:59:36;4.05;;;2.80;;
8317;SDS011;4196;48.926;8.964;2023-05-29T17:02:23;4.90;;;2.20;;
8317;SDS011;4196;48.926;8.964;2023-05-29T17:05:10;3.30;;;2.33;;
8317;SDS011;4196;48.926;8.964;2023-05-29T17:07:57;3.65;;;2.28;;
8317;SDS011;4196;48.926;8.964;2023-05-29T17:10:43;3.13;;;2.50;;
8317;SDS011;4196;48.926;8.964;2023-05-29T17:13:31;2.30;;;2.10;;
8317;SDS011;4196;48.926;8.964;2023-05-29T17:16:17;5.30;;;2.60;;
8317;SDS011;4196;48.926;8.964;2023-05-29T17:19:04;5.30;;;2.80;;
8317;SDS011;4196;48.926;8.964;2023-05-29T17:21:51;2.10;;;1.90;;
8317;SDS011;4196;48.926;8.964;2023-05-29T17:24:38;3.08;;;2.30;;
8317;SDS011;4196;48.926;8.964;2023-05-29T17:27:24;3.50;;;2.30;;
8317;SDS011;4196;48.926;8.964;2023-05-29T17:30:10;3.87;;;2.20;;
8317;SDS011;4196;48.926;8.964;2023-05-29T17:32:57;3.77;;;2.40;;
8317;SDS011;4196;48.926;8.964;2023-05-29T17:35:45;2.70;;;2.30;;
8317;SDS011;4196;48.926;8.964;2023-05-29T17:38:32;3.60;;;2.50;;
8317;SDS011;4196;48.926;8.964;2023-05-29T17:41:18;4.23;;;2.50;;
8317;SDS011;4196;48.926;8.964;2023-05-29T17:44:05;5.60;;;2.30;;
8317;SDS011;4196;48.926;8.964;2023-05-29T17:46:52;3.22;;;2.60;;
8317;SDS011;4196;48.926;8.964;2023-05-29T17:49:39;4.40;;;2.13;;